createdAt,value
2022-11-29T00:01:32.042Z,8.80
2022-11-29T00:04:02.132Z,8.70
2022-11-29T00:06:31.975Z,8.70
2022-11-29T00:09:02.461Z,8.70
2022-11-29T00:11:50.938Z,8.80
2022-11-29T00:14:20.257Z,8.80
2022-11-29T00:16:52.099Z,8.80
2022-11-29T00:19:21.866Z,8.80
2022-11-29T00:21:49.917Z,8.80
2022-11-29T00:24:17.996Z,8.80
2022-11-29T00:26:46.061Z,8.70
2022-11-29T00:29:14.244Z,8.70
2022-11-29T00:31:42.899Z,8.70
2022-11-29T00:34:13.000Z,8.70
2022-11-29T00:36:42.615Z,8.70
2022-11-29T00:39:12.196Z,8.70
2022-11-29T00:41:40.317Z,8.70
2022-11-29T00:44:08.649Z,8.70
2022-11-29T00:46:36.977Z,8.70
2022-11-29T00:49:05.517Z,8.70
2022-11-29T00:51:33.903Z,8.70
2022-11-29T00:54:03.334Z,8.70
2022-11-29T00:56:31.499Z,8.70
2022-11-29T00:58:59.618Z,8.70
2022-11-29T01:01:27.674Z,8.70
2022-11-29T01:03:55.724Z,8.70
2022-11-29T01:06:23.739Z,8.70
2022-11-29T01:08:51.880Z,8.80
2022-11-29T01:11:23.442Z,8.80
2022-11-29T01:13:54.455Z,8.80
2022-11-29T01:16:22.843Z,8.80
2022-11-29T01:18:50.872Z,8.80
2022-11-29T01:21:21.235Z,8.80
2022-11-29T01:23:50.683Z,8.80
2022-11-29T01:26:22.027Z,8.80
2022-11-29T01:28:51.888Z,8.80
2022-11-29T01:31:22.333Z,8.80
2022-11-29T01:33:53.405Z,8.80
2022-11-29T01:36:21.523Z,8.80
2022-11-29T01:38:49.589Z,8.80
2022-11-29T01:41:23.756Z,8.80
2022-11-29T01:44:01.594Z,8.80
2022-11-29T01:46:31.631Z,8.70
2022-11-29T01:49:04.647Z,8.70
2022-11-29T01:51:35.496Z,8.70
2022-11-29T01:54:03.761Z,8.70
2022-11-29T01:56:35.499Z,8.70
2022-11-29T01:59:07.367Z,8.70
2022-11-29T02:01:36.149Z,8.70
2022-11-29T02:04:04.554Z,8.70
2022-11-29T02:06:32.870Z,8.70
2022-11-29T02:09:00.968Z,8.60
2022-11-29T02:11:53.363Z,8.60
2022-11-29T02:14:41.063Z,8.70
2022-11-29T02:17:18.717Z,8.60
2022-11-29T02:20:13.154Z,8.60
2022-11-29T02:22:47.502Z,8.60
2022-11-29T02:25:31.268Z,8.50
2022-11-29T02:28:53.269Z,8.60
2022-11-29T02:31:56.209Z,8.50
2022-11-29T02:34:50.559Z,8.50
2022-11-29T02:37:33.913Z,8.50
2022-11-29T02:40:15.677Z,8.60
2022-11-29T02:43:25.143Z,8.60
2022-11-29T02:46:17.150Z,8.60
2022-11-29T02:49:08.702Z,8.60
2022-11-29T02:59:35.339Z,8.60
2022-11-29T03:07:42.464Z,8.50
2022-11-29T03:10:21.800Z,8.50
2022-11-29T03:12:53.085Z,8.50
2022-11-29T03:15:30.373Z,8.50
2022-11-29T03:18:10.519Z,8.50
2022-11-29T03:20:52.738Z,8.50
2022-11-29T03:23:25.143Z,8.60
2022-11-29T03:25:58.644Z,8.60
2022-11-29T03:28:32.197Z,8.60
2022-11-29T03:35:00.617Z,8.50
2022-11-29T03:37:58.831Z,8.50
2022-11-29T03:40:32.550Z,8.50
2022-11-29T03:43:05.475Z,8.50
2022-11-29T03:45:38.114Z,8.50
2022-11-29T03:48:10.366Z,8.50
2022-11-29T03:50:43.639Z,8.50
2022-11-29T03:53:18.305Z,8.50
2022-11-29T03:55:57.979Z,8.50
2022-11-29T03:58:38.534Z,8.50
2022-11-29T04:02:03.889Z,8.50
2022-11-29T04:04:58.816Z,8.50
2022-11-29T04:07:48.137Z,8.50
2022-11-29T04:10:35.451Z,8.50
2022-11-29T04:13:37.024Z,8.40
2022-11-29T04:16:50.804Z,8.40
2022-11-29T04:19:58.255Z,8.40
2022-11-29T04:23:10.581Z,8.40
2022-11-29T04:26:04.418Z,8.40
2022-11-29T04:29:00.830Z,8.40
2022-11-29T04:39:17.348Z,8.30
2022-11-29T04:42:18.653Z,8.40
2022-11-29T04:44:59.669Z,8.30
2022-11-29T04:47:54.780Z,8.30
2022-11-29T04:50:33.607Z,8.40
2022-11-29T04:53:25.926Z,8.30
2022-11-29T04:56:03.213Z,8.40
2022-11-29T04:58:39.662Z,8.40
2022-11-29T05:01:19.615Z,8.30
2022-11-29T05:03:57.056Z,8.40
2022-11-29T05:06:30.968Z,8.30
2022-11-29T05:09:08.129Z,8.30
2022-11-29T05:11:55.718Z,8.40
2022-11-29T05:14:41.777Z,8.40
2022-11-29T05:17:34.036Z,8.30
2022-11-29T05:20:25.291Z,8.40
2022-11-29T05:23:08.399Z,8.40
2022-11-29T05:25:46.279Z,8.40
2022-11-29T05:28:22.049Z,8.50
2022-11-29T05:31:21.486Z,8.40
2022-11-29T05:34:09.636Z,8.50
2022-11-29T05:36:42.363Z,8.50
2022-11-29T05:39:34.672Z,8.40
2022-11-29T05:42:20.237Z,8.40
2022-11-29T05:44:59.130Z,8.40
2022-11-29T05:47:33.482Z,8.40
2022-11-29T05:50:08.582Z,8.40
2022-11-29T05:52:47.419Z,8.40
2022-11-29T05:55:27.210Z,8.40
2022-11-29T05:58:00.148Z,8.40
2022-11-29T06:00:38.485Z,8.40
2022-11-29T06:03:15.662Z,8.40
2022-11-29T06:05:49.433Z,8.30
2022-11-29T06:08:30.644Z,8.30
2022-11-29T06:11:06.322Z,8.30
2022-11-29T06:13:49.832Z,8.30
2022-11-29T06:16:39.259Z,8.30
2022-11-29T06:19:45.157Z,8.30
2022-11-29T06:22:31.535Z,8.30
2022-11-29T06:25:17.153Z,8.30
2022-11-29T06:28:09.904Z,8.20
2022-11-29T06:31:00.744Z,8.30
2022-11-29T06:33:37.411Z,8.20
2022-11-29T06:36:18.532Z,8.30
2022-11-29T06:38:46.973Z,8.20
2022-11-29T06:41:19.660Z,8.30
2022-11-29T06:43:48.547Z,8.30
2022-11-29T06:46:28.134Z,8.20
2022-11-29T06:49:04.337Z,8.30
2022-11-29T06:51:40.348Z,8.30
2022-11-29T06:54:24.747Z,8.30
2022-11-29T06:56:59.602Z,8.30
2022-11-29T06:59:42.356Z,8.30
2022-11-29T07:02:32.797Z,8.30
2022-11-29T07:05:17.168Z,8.30
2022-11-29T07:07:47.180Z,8.30
2022-11-29T07:10:18.150Z,8.30
2022-11-29T07:12:50.781Z,8.30
2022-11-29T07:15:20.651Z,8.30
2022-11-29T07:18:04.863Z,8.30
2022-11-29T07:20:42.742Z,8.30
2022-11-29T07:23:24.298Z,8.30
2022-11-29T07:26:05.439Z,8.30
2022-11-29T07:28:44.861Z,8.20
2022-11-29T07:31:20.513Z,8.30
2022-11-29T07:33:59.838Z,8.20
2022-11-29T07:36:37.558Z,8.20
2022-11-29T07:39:19.241Z,8.20
2022-11-29T07:41:56.697Z,8.20
2022-11-29T07:44:31.540Z,8.20
2022-11-29T07:47:02.576Z,8.10
2022-11-29T07:49:30.602Z,8.10
2022-11-29T07:52:00.106Z,8.10
2022-11-29T07:54:28.263Z,8.10
2022-11-29T08:04:42.681Z,8.10
2022-11-29T08:07:12.422Z,8.00
2022-11-29T08:09:40.474Z,7.90
2022-11-29T08:12:08.690Z,7.80
2022-11-29T08:14:36.818Z,7.80
2022-11-29T08:17:04.940Z,7.80
2022-11-29T08:19:33.039Z,7.80
2022-11-29T08:22:01.150Z,7.90
2022-11-29T08:24:30.588Z,7.90
2022-11-29T08:26:58.652Z,7.90
2022-11-29T08:29:29.026Z,7.90
2022-11-29T08:31:57.349Z,7.90
2022-11-29T08:34:26.163Z,7.90
2022-11-29T08:36:56.243Z,8.00
2022-11-29T08:39:24.867Z,7.90
2022-11-29T08:41:54.278Z,7.90
2022-11-29T08:44:22.299Z,7.90
2022-11-29T08:47:07.591Z,7.90
2022-11-29T08:49:35.616Z,7.90
2022-11-29T08:52:21.156Z,7.90
2022-11-29T08:54:49.172Z,8.00
2022-11-29T08:57:39.939Z,8.00
2022-11-29T09:00:07.986Z,7.90
2022-11-29T09:02:37.577Z,7.90
2022-11-29T09:05:06.423Z,7.90
2022-11-29T09:07:34.728Z,8.00
2022-11-29T09:10:05.080Z,8.00
2022-11-29T09:12:35.189Z,7.90
2022-11-29T09:15:03.358Z,8.00
2022-11-29T09:17:31.428Z,7.90
2022-11-29T09:19:59.470Z,8.00
2022-11-29T09:22:27.556Z,8.00
2022-11-29T09:24:55.661Z,8.00
2022-11-29T09:27:23.682Z,8.10
2022-11-29T09:29:53.104Z,8.20
2022-11-29T09:32:21.132Z,8.20
2022-11-29T09:34:49.225Z,8.20
2022-11-29T09:37:17.346Z,8.20
2022-11-29T09:39:45.621Z,8.20
2022-11-29T09:42:28.594Z,8.30
2022-11-29T09:45:05.220Z,8.40
2022-11-29T09:47:58.097Z,8.30
2022-11-29T09:50:32.500Z,8.30
2022-11-29T09:53:17.696Z,8.30
2022-11-29T09:56:01.079Z,8.40
2022-11-29T09:58:35.059Z,8.40
2022-11-29T10:01:11.399Z,8.30
2022-11-29T10:03:42.957Z,8.40
2022-11-29T10:06:20.248Z,8.30
2022-11-29T10:08:52.830Z,8.40
2022-11-29T10:11:24.676Z,8.50
2022-11-29T10:13:58.873Z,8.50
2022-11-29T10:16:38.212Z,8.40
2022-11-29T10:19:11.898Z,8.50
2022-11-29T10:21:45.687Z,8.50
2022-11-29T10:24:18.381Z,8.50
2022-11-29T10:26:47.446Z,8.60
2022-11-29T10:40:57.184Z,8.80
2022-11-29T10:43:26.174Z,8.80
2022-11-29T10:45:57.029Z,8.70
2022-11-29T10:48:31.726Z,8.70
2022-11-29T10:51:00.491Z,8.70
2022-11-29T10:53:32.167Z,8.70
2022-11-29T10:56:05.094Z,8.70
2022-11-29T10:58:33.464Z,8.80
2022-11-29T11:01:06.676Z,8.80
2022-11-29T11:03:41.426Z,8.80
2022-11-29T11:06:15.492Z,8.90
2022-11-29T11:08:46.029Z,8.90
2022-11-29T11:11:15.831Z,8.90
2022-11-29T11:13:43.946Z,9.00
2022-11-29T11:16:18.008Z,9.00
2022-11-29T11:18:48.092Z,9.00
2022-11-29T11:21:19.122Z,9.10
2022-11-29T11:23:54.531Z,9.00
2022-11-29T11:26:25.700Z,9.00
2022-11-29T11:29:01.477Z,8.90
2022-11-29T11:31:34.269Z,8.90
2022-11-29T11:34:26.352Z,8.90
2022-11-29T11:36:55.070Z,9.00
2022-11-29T11:39:24.473Z,9.00
2022-11-29T11:42:11.722Z,9.00
2022-11-29T11:44:49.384Z,8.90
2022-11-29T11:47:20.802Z,9.00
2022-11-29T11:49:51.165Z,9.00
2022-11-29T11:52:23.173Z,9.10
2022-11-29T11:54:54.671Z,9.10
2022-11-29T11:57:25.975Z,9.00
2022-11-29T11:59:57.890Z,8.90
2022-11-29T12:02:31.107Z,9.00
2022-11-29T12:05:03.382Z,9.00
2022-11-29T12:08:06.752Z,9.10
2022-11-29T12:10:28.352Z,9.10
2022-11-29T12:13:00.538Z,9.10
2022-11-29T12:15:32.527Z,9.00
2022-11-29T12:18:05.361Z,9.00
2022-11-29T12:20:40.651Z,8.90
2022-11-29T12:23:24.281Z,8.90
2022-11-29T12:25:57.235Z,8.90
2022-11-29T12:28:31.592Z,8.90
2022-11-29T12:31:11.807Z,9.00
2022-11-29T12:33:48.748Z,9.00
2022-11-29T12:36:29.989Z,9.20
2022-11-29T12:39:12.250Z,9.20
2022-11-29T12:41:53.655Z,9.20
2022-11-29T12:44:38.415Z,9.30
2022-11-29T12:47:35.346Z,9.40
2022-11-29T12:50:13.977Z,9.40
2022-11-29T12:52:51.728Z,9.40
2022-11-29T12:55:24.887Z,9.40
2022-11-29T12:58:04.113Z,9.50
2022-11-29T13:00:41.797Z,9.50
2022-11-29T13:03:20.536Z,9.50
2022-11-29T13:06:01.230Z,9.40
2022-11-29T13:08:48.276Z,9.40
2022-11-29T13:11:23.023Z,9.50
2022-11-29T13:14:08.327Z,9.60
2022-11-29T13:16:52.422Z,9.60
2022-11-29T13:19:26.149Z,9.60
2022-11-29T13:22:03.257Z,9.60
2022-11-29T13:24:42.415Z,9.50
2022-11-29T13:27:18.223Z,9.50
2022-11-29T13:29:47.433Z,9.40
2022-11-29T13:32:35.178Z,9.50
2022-11-29T13:35:08.621Z,9.60
2022-11-29T13:37:41.963Z,9.60
2022-11-29T13:40:26.931Z,9.70
2022-11-29T13:43:02.329Z,9.70
2022-11-29T13:45:37.462Z,9.80
2022-11-29T13:48:33.801Z,9.70
2022-11-29T13:51:24.563Z,9.80
2022-11-29T13:53:54.116Z,9.80
2022-11-29T13:56:36.759Z,9.80
2022-11-29T13:59:15.214Z,9.80
2022-11-29T14:01:51.565Z,9.70
2022-11-29T14:04:31.312Z,9.70
2022-11-29T14:07:18.775Z,9.60
2022-11-29T14:09:52.155Z,9.50
2022-11-29T14:12:38.263Z,9.50
2022-11-29T14:15:24.373Z,9.30
2022-11-29T14:17:56.052Z,9.40
2022-11-29T14:20:57.011Z,9.30
2022-11-29T14:23:42.366Z,9.20
2022-11-29T14:26:31.082Z,9.10
2022-11-29T14:29:00.537Z,9.00
2022-11-29T14:31:48.633Z,9.00
2022-11-29T14:34:29.879Z,9.00
2022-11-29T14:37:06.499Z,9.00
2022-11-29T14:39:43.657Z,8.90
2022-11-29T14:42:19.385Z,8.80
2022-11-29T14:44:52.125Z,8.80
2022-11-29T14:47:29.792Z,8.70
2022-11-29T14:50:00.446Z,8.60
2022-11-29T14:52:32.500Z,8.60
2022-11-29T14:55:07.690Z,8.50
2022-11-29T14:57:55.505Z,8.40
2022-11-29T15:00:25.964Z,8.30
2022-11-29T15:02:57.616Z,8.30
2022-11-29T15:05:33.589Z,8.20
2022-11-29T15:08:11.529Z,8.20
2022-11-29T15:10:43.268Z,8.20
2022-11-29T15:13:14.804Z,8.20
2022-11-29T15:16:15.197Z,8.20
2022-11-29T15:19:02.848Z,8.10
2022-11-29T15:33:20.378Z,7.90
2022-11-29T15:35:50.993Z,7.80
2022-11-29T15:38:20.304Z,7.80
2022-11-29T15:40:53.535Z,7.80
2022-11-29T15:43:25.617Z,7.80
2022-11-29T15:45:55.546Z,7.80
2022-11-29T15:48:27.243Z,7.90
2022-11-29T15:51:02.838Z,8.00
2022-11-29T15:53:35.605Z,8.10
2022-11-29T15:56:07.506Z,8.10
2022-11-29T15:58:36.901Z,8.10
2022-11-29T16:01:05.856Z,8.20
2022-11-29T16:03:39.093Z,8.20
2022-11-29T16:06:16.670Z,8.10
2022-11-29T16:08:45.624Z,8.20
2022-11-29T16:11:18.076Z,8.30
2022-11-29T16:14:03.710Z,8.20
2022-11-29T16:16:35.554Z,8.20
2022-11-29T16:19:19.598Z,8.20
2022-11-29T16:21:59.132Z,8.20
2022-11-29T16:24:27.803Z,8.20
2022-11-29T16:26:56.354Z,8.20
2022-11-29T16:29:29.544Z,8.20
2022-11-29T16:31:58.087Z,8.20
2022-11-29T16:34:33.237Z,8.20
2022-11-29T16:37:03.871Z,8.10
2022-11-29T16:39:32.442Z,8.10
2022-11-29T16:42:08.877Z,8.00
2022-11-29T16:44:56.183Z,8.00
2022-11-29T16:47:25.763Z,8.00
2022-11-29T16:50:14.131Z,8.00
2022-11-29T16:52:42.286Z,8.10
2022-11-29T16:55:10.422Z,8.10
2022-11-29T16:57:39.481Z,8.10
2022-11-29T17:00:24.713Z,8.10
2022-11-29T17:02:52.825Z,8.20
2022-11-29T17:05:22.310Z,8.20
2022-11-29T17:07:51.160Z,8.30
2022-11-29T17:10:25.111Z,8.20
2022-11-29T17:12:55.946Z,8.30
2022-11-29T17:15:24.081Z,8.20
2022-11-29T17:17:52.148Z,8.20
2022-11-29T17:20:21.598Z,8.20
2022-11-29T17:22:49.698Z,8.20
2022-11-29T17:25:17.961Z,8.20
2022-11-29T17:27:46.245Z,8.20
2022-11-29T17:30:15.133Z,8.20
2022-11-29T17:32:43.170Z,8.30
2022-11-29T17:35:11.513Z,8.20
2022-11-29T17:37:40.935Z,8.30
2022-11-29T17:40:10.096Z,8.30
2022-11-29T17:42:38.396Z,8.30
2022-11-29T17:45:07.137Z,8.20
2022-11-29T17:47:35.211Z,8.30
2022-11-29T17:50:03.290Z,8.20
2022-11-29T17:52:31.360Z,8.30
2022-11-29T17:55:00.843Z,8.30
2022-11-29T17:57:29.122Z,8.30
2022-11-29T17:59:57.137Z,8.30
2022-11-29T18:02:25.239Z,8.30
2022-11-29T18:04:53.283Z,8.40
2022-11-29T18:07:21.460Z,8.40
2022-11-29T18:09:49.528Z,8.30
2022-11-29T18:12:20.108Z,8.30
2022-11-29T18:14:50.221Z,8.40
2022-11-29T18:17:18.356Z,8.30
2022-11-29T18:19:46.762Z,8.30
2022-11-29T18:22:15.244Z,8.30
2022-11-29T18:24:44.205Z,8.30
2022-11-29T18:27:12.353Z,8.30
2022-11-29T18:29:41.804Z,8.30
2022-11-29T18:32:09.907Z,8.30
2022-11-29T18:34:37.945Z,8.30
2022-11-29T18:37:08.811Z,8.30
2022-11-29T18:39:39.164Z,8.30
2022-11-29T18:42:07.330Z,8.30
2022-11-29T18:44:35.402Z,8.30
2022-11-29T18:47:04.951Z,8.30
2022-11-29T18:49:33.076Z,8.30
2022-11-29T18:52:01.159Z,8.30
2022-11-29T18:54:31.078Z,8.30
2022-11-29T18:56:59.136Z,8.30
2022-11-29T18:59:27.186Z,8.30
2022-11-29T19:01:55.349Z,8.30
2022-11-29T19:04:27.685Z,8.30
2022-11-29T19:06:55.907Z,8.30
2022-11-29T19:09:24.343Z,8.30
2022-11-29T19:11:52.680Z,8.30
2022-11-29T19:14:21.202Z,8.30
2022-11-29T19:16:50.515Z,8.30
2022-11-29T19:19:19.902Z,8.30
2022-11-29T19:21:49.425Z,8.30
2022-11-29T19:24:18.875Z,8.30
2022-11-29T19:26:48.472Z,8.30
2022-11-29T19:29:17.417Z,8.30
2022-11-29T19:31:45.814Z,8.30
2022-11-29T19:34:13.989Z,8.30
2022-11-29T19:36:44.554Z,8.30
2022-11-29T19:39:16.524Z,8.30
2022-11-29T19:41:46.404Z,8.20
2022-11-29T19:44:15.241Z,8.20
2022-11-29T19:46:45.728Z,8.30
2022-11-29T19:49:13.917Z,8.30
2022-11-29T19:51:42.589Z,8.30
2022-11-29T19:54:12.026Z,8.20
2022-11-29T19:56:41.673Z,8.20
2022-11-29T19:59:09.897Z,8.20
2022-11-29T20:01:41.553Z,8.20
2022-11-29T20:04:12.082Z,8.10
2022-11-29T20:06:41.918Z,8.10
2022-11-29T20:09:10.328Z,8.10
2022-11-29T20:11:38.631Z,8.10
2022-11-29T20:14:09.273Z,8.10
2022-11-29T20:16:39.142Z,8.00
2022-11-29T20:19:11.509Z,8.00
2022-11-29T20:21:43.671Z,8.00
2022-11-29T20:24:12.982Z,8.00
2022-11-29T20:26:42.825Z,8.00
2022-11-29T20:29:13.163Z,8.00
2022-11-29T20:31:47.932Z,7.90
2022-11-29T20:34:18.664Z,7.90
2022-11-29T20:37:13.383Z,7.90
2022-11-29T20:39:48.329Z,7.90
2022-11-29T20:42:45.358Z,7.90
2022-11-29T20:45:16.872Z,7.90
2022-11-29T20:47:51.320Z,7.90
2022-11-29T20:50:23.544Z,7.80
2022-11-29T20:53:03.956Z,7.90
2022-11-29T20:55:32.240Z,7.80
2022-11-29T20:58:03.107Z,7.80
2022-11-29T21:00:32.682Z,7.80
2022-11-29T21:03:01.048Z,7.80
2022-11-29T21:05:29.184Z,7.80
2022-11-29T21:07:57.256Z,7.80
2022-11-29T21:10:25.421Z,7.90
2022-11-29T21:12:53.984Z,7.80
2022-11-29T21:15:23.082Z,7.80
2022-11-29T21:17:56.295Z,7.90
2022-11-29T21:20:26.723Z,7.90
2022-11-29T21:23:01.638Z,7.80
2022-11-29T21:25:44.259Z,7.80
2022-11-29T21:28:14.412Z,7.80
2022-11-29T21:30:43.521Z,7.80
2022-11-29T21:33:13.395Z,7.80
2022-11-29T21:35:41.531Z,7.80
2022-11-29T21:38:19.055Z,7.80
2022-11-29T21:40:47.642Z,7.80
2022-11-29T21:43:15.705Z,7.80
2022-11-29T21:45:43.765Z,7.80
2022-11-29T21:48:27.060Z,7.80
2022-11-29T21:50:56.368Z,7.80
2022-11-29T21:53:24.852Z,7.80
2022-11-29T21:55:58.034Z,7.80
2022-11-29T21:58:26.278Z,7.80
2022-11-29T22:00:54.723Z,7.80
2022-11-29T22:03:24.342Z,7.80
2022-11-29T22:05:52.454Z,7.80
2022-11-29T22:08:20.525Z,7.80
2022-11-29T22:10:48.618Z,7.70
2022-11-29T22:13:16.678Z,7.80
2022-11-29T22:15:44.767Z,7.80
2022-11-29T22:18:12.803Z,7.70
2022-11-29T22:20:42.223Z,7.70
2022-11-29T22:23:10.222Z,7.70
2022-11-29T22:25:38.311Z,7.70
2022-11-29T22:28:06.462Z,7.60
2022-11-29T22:30:35.831Z,7.70
2022-11-29T22:33:05.739Z,7.70
2022-11-29T22:35:42.921Z,7.70
2022-11-29T22:38:12.327Z,7.70
2022-11-29T22:40:40.561Z,7.60
2022-11-29T22:43:08.638Z,7.60
2022-11-29T22:45:36.640Z,7.70
2022-11-29T22:48:04.970Z,7.70
2022-11-29T22:50:32.988Z,7.60
2022-11-29T22:53:01.028Z,7.70
2022-11-29T22:55:30.515Z,7.60
2022-11-29T22:57:58.573Z,7.60
2022-11-29T23:00:26.714Z,7.60
2022-11-29T23:02:57.754Z,7.60
2022-11-29T23:05:30.819Z,7.60
2022-11-29T23:08:00.408Z,7.70
2022-11-29T23:10:29.907Z,7.70
2022-11-29T23:12:58.023Z,7.70
2022-11-29T23:15:26.121Z,7.60
2022-11-29T23:17:54.174Z,7.70
2022-11-29T23:20:22.211Z,7.70
2022-11-29T23:22:50.309Z,7.70
2022-11-29T23:25:18.532Z,7.70
2022-11-29T23:27:50.698Z,7.70
2022-11-29T23:30:18.880Z,7.70
2022-11-29T23:32:46.892Z,7.80
2022-11-29T23:35:15.140Z,7.80
2022-11-29T23:37:43.191Z,7.80
2022-11-29T23:40:12.174Z,7.80
2022-11-29T23:42:46.987Z,7.80
2022-11-29T23:45:16.918Z,7.70
2022-11-29T23:47:44.947Z,7.80
2022-11-29T23:50:13.474Z,7.80
2022-11-29T23:52:41.564Z,7.70
2022-11-29T23:55:12.618Z,7.60
2022-11-29T23:57:40.802Z,7.60
